createdAt,value
2022-10-13T00:04:37.675Z,13.17
2022-10-13T00:09:40.392Z,13.63
2022-10-13T00:14:43.074Z,13.67
2022-10-13T00:19:45.852Z,13.43
2022-10-13T00:24:53.411Z,13.03
2022-10-13T00:29:56.980Z,13.37
2022-10-13T00:34:59.700Z,13.27
2022-10-13T00:40:02.427Z,13.27
2022-10-13T00:45:29.490Z,12.80
2022-10-13T00:50:39.687Z,13.10
2022-10-13T00:55:43.997Z,12.80
2022-10-13T01:00:49.375Z,11.97
2022-10-13T01:05:54.524Z,11.70
2022-10-13T01:11:16.052Z,12.03
2022-10-13T01:16:34.841Z,12.77
2022-10-13T01:21:58.716Z,12.30
2022-10-13T01:27:23.407Z,13.17
2022-10-13T01:32:26.066Z,12.40
2022-10-13T01:37:57.416Z,13.53
2022-10-13T01:43:12.830Z,13.67
2022-10-13T01:48:17.766Z,13.50
2022-10-13T01:53:26.177Z,13.90
2022-10-13T01:58:32.789Z,13.40
2022-10-13T02:03:39.646Z,13.73
2022-10-13T02:08:58.527Z,13.53
2022-10-13T02:14:04.015Z,13.80
2022-10-13T02:19:09.377Z,14.03
2022-10-13T02:24:12.550Z,13.80
2022-10-13T02:29:17.038Z,13.63
2022-10-13T02:34:19.766Z,13.83
2022-10-13T02:39:22.454Z,14.23
2022-10-13T02:44:25.494Z,14.80
2022-10-13T02:49:28.211Z,14.43
2022-10-13T02:54:30.935Z,14.50
2022-10-13T02:59:33.804Z,13.73
2022-10-13T03:04:36.546Z,14.40
2022-10-13T03:09:39.320Z,13.03
2022-10-13T03:14:42.119Z,12.97
2022-10-13T03:19:44.812Z,13.50
2022-10-13T03:24:52.747Z,13.70
2022-10-13T03:29:55.478Z,13.43
2022-10-13T03:34:58.269Z,12.67
2022-10-13T03:40:00.984Z,12.53
2022-10-13T03:45:05.066Z,13.23
2022-10-13T03:50:12.084Z,12.87
2022-10-13T03:55:14.798Z,13.53
2022-10-13T04:00:17.841Z,13.27
2022-10-13T04:05:20.566Z,14.47
2022-10-13T04:10:23.300Z,13.53
2022-10-13T04:15:26.032Z,13.03
2022-10-13T04:20:28.733Z,14.57
2022-10-13T04:25:31.496Z,14.40
2022-10-13T04:30:35.386Z,14.63
2022-10-13T04:35:42.381Z,14.10
2022-10-13T04:40:45.113Z,14.30
2022-10-13T04:45:47.852Z,14.37
2022-10-13T04:51:03.183Z,15.47
2022-10-13T04:56:08.824Z,17.00
2022-10-13T05:01:22.353Z,16.73
2022-10-13T05:06:28.782Z,17.67
2022-10-13T05:11:32.413Z,16.33
2022-10-13T05:16:35.186Z,16.17
2022-10-13T05:21:38.836Z,17.03
2022-10-13T05:26:42.338Z,16.77
2022-10-13T05:31:45.174Z,17.63
2022-10-13T05:36:50.793Z,18.03
2022-10-13T05:41:53.522Z,17.50
2022-10-13T05:46:56.948Z,18.10
2022-10-13T05:52:04.492Z,16.37
2022-10-13T05:57:18.102Z,16.73
2022-10-13T06:02:24.280Z,17.27
2022-10-13T06:07:27.063Z,16.70
2022-10-13T06:12:29.766Z,18.23
2022-10-13T06:17:32.569Z,17.77
2022-10-13T06:22:36.357Z,17.37
2022-10-13T06:27:39.257Z,17.83
2022-10-13T06:32:42.174Z,18.53
2022-10-13T06:37:46.576Z,18.67
2022-10-13T06:42:52.660Z,19.67
2022-10-13T06:47:58.347Z,21.97
2022-10-13T06:53:01.094Z,22.97
2022-10-13T06:58:03.896Z,22.70
2022-10-13T07:03:06.603Z,22.47
2022-10-13T07:08:09.416Z,23.80
2022-10-13T07:13:12.258Z,24.37
2022-10-13T07:18:15.053Z,25.67
2022-10-13T07:23:17.815Z,25.67
2022-10-13T07:28:20.658Z,24.83
2022-10-13T07:33:24.031Z,24.30
2022-10-13T07:38:26.737Z,23.87
2022-10-13T07:43:29.843Z,21.70
2022-10-13T07:48:34.441Z,19.83
2022-10-13T07:53:38.550Z,20.80
2022-10-13T07:58:44.593Z,21.33
2022-10-13T08:03:50.226Z,19.77
2022-10-13T08:08:55.060Z,20.70
2022-10-13T08:14:01.731Z,19.93
2022-10-13T08:19:04.428Z,18.60
2022-10-13T08:24:09.730Z,18.77
2022-10-13T08:29:22.470Z,18.17
2022-10-13T08:34:26.389Z,17.17
2022-10-13T08:39:29.379Z,17.90
2022-10-13T08:50:37.042Z,18.03
2022-10-13T08:55:55.136Z,16.83
2022-10-13T09:01:15.020Z,17.33
2022-10-13T09:06:31.990Z,16.90
2022-10-13T09:11:40.683Z,15.23
2022-10-13T09:16:45.165Z,15.60
2022-10-13T09:21:49.653Z,14.47
2022-10-13T09:27:07.261Z,13.90
2022-10-13T09:32:20.730Z,13.53
2022-10-13T09:37:25.754Z,13.50
2022-10-13T09:42:30.454Z,12.00
2022-10-13T09:47:37.692Z,11.87
2022-10-13T09:52:40.928Z,11.13
2022-10-13T09:57:49.593Z,10.10
2022-10-13T10:03:22.899Z,10.73
2022-10-13T10:09:04.187Z,9.60
2022-10-13T10:14:28.458Z,9.60
2022-10-13T10:19:58.742Z,9.40
2022-10-13T10:25:30.195Z,9.20
2022-10-13T10:30:39.759Z,9.17
2022-10-13T10:36:02.684Z,9.57
2022-10-13T10:41:12.381Z,9.30
2022-10-13T10:46:26.118Z,8.37
2022-10-13T10:51:34.102Z,8.50
2022-10-13T10:56:42.388Z,8.07
2022-10-13T11:02:00.097Z,8.40
2022-10-13T11:07:04.512Z,8.03
2022-10-13T11:12:23.242Z,8.17
2022-10-13T11:17:32.872Z,9.43
2022-10-13T11:22:35.592Z,8.80
2022-10-13T11:27:42.803Z,9.70
2022-10-13T11:32:59.576Z,9.57
2022-10-13T11:38:36.655Z,9.33
2022-10-13T11:49:47.248Z,9.60
2022-10-13T11:54:53.840Z,9.87
2022-10-13T11:59:58.107Z,10.17
2022-10-13T12:05:27.265Z,9.40
2022-10-13T12:10:33.911Z,9.07
2022-10-13T12:15:42.172Z,10.30
2022-10-13T12:20:59.142Z,10.43
2022-10-13T12:26:02.425Z,11.10
2022-10-13T12:31:05.188Z,11.43
2022-10-13T12:36:17.223Z,11.47
2022-10-13T12:41:28.523Z,10.03
2022-10-13T12:46:42.068Z,11.17
2022-10-13T12:51:51.125Z,10.07
2022-10-13T12:57:14.703Z,10.70
2022-10-13T13:02:31.296Z,12.20
2022-10-13T13:07:37.204Z,10.97
2022-10-13T13:12:40.398Z,11.83
2022-10-13T13:18:04.822Z,11.67
2022-10-13T13:23:07.705Z,10.80
2022-10-13T13:28:16.013Z,11.20
2022-10-13T13:33:18.759Z,11.30
2022-10-13T13:38:21.879Z,11.07
2022-10-13T13:43:24.632Z,11.10
2022-10-13T13:48:27.662Z,10.53
2022-10-13T13:53:30.442Z,10.83
2022-10-13T13:58:33.136Z,10.90
2022-10-13T14:03:35.932Z,11.53
2022-10-13T14:08:42.781Z,11.77
2022-10-13T14:13:45.901Z,11.60
2022-10-13T14:18:50.960Z,12.13
2022-10-13T14:23:53.669Z,11.50
2022-10-13T14:28:58.467Z,11.77
2022-10-13T14:34:01.228Z,13.07
2022-10-13T14:39:07.064Z,12.37
2022-10-13T14:44:13.660Z,11.70
2022-10-13T14:49:20.923Z,13.17
2022-10-13T14:54:24.292Z,12.87
2022-10-13T14:59:27.043Z,12.60
2022-10-13T15:04:29.724Z,13.17
2022-10-13T15:09:45.144Z,13.17
2022-10-13T15:14:55.590Z,12.83
2022-10-13T15:19:58.386Z,12.53
2022-10-13T15:25:03.362Z,13.83
2022-10-13T15:30:07.906Z,14.37
2022-10-13T15:35:10.613Z,13.37
2022-10-13T15:40:16.346Z,13.60
2022-10-13T15:45:19.167Z,13.80
2022-10-13T15:50:21.842Z,13.03
2022-10-13T15:55:25.186Z,12.27
2022-10-13T16:00:28.011Z,13.30
2022-10-13T16:05:30.943Z,13.23
2022-10-13T16:10:33.794Z,11.80
2022-10-13T16:15:36.555Z,12.70
2022-10-13T16:20:40.859Z,12.30
2022-10-13T16:25:43.691Z,11.47
2022-10-13T16:30:46.439Z,13.07
2022-10-13T16:35:49.184Z,13.40
2022-10-13T16:40:53.180Z,12.17
2022-10-13T16:46:00.646Z,11.93
2022-10-13T16:51:16.405Z,11.97
2022-10-13T16:56:22.327Z,12.67
2022-10-13T17:01:26.264Z,13.10
2022-10-13T17:06:30.165Z,12.90
2022-10-13T17:11:34.709Z,13.17
2022-10-13T17:16:40.400Z,13.30
2022-10-13T17:21:44.290Z,13.97
2022-10-13T17:26:48.799Z,13.77
2022-10-13T17:31:51.592Z,14.83
2022-10-13T17:36:59.394Z,14.60
2022-10-13T17:42:02.196Z,14.10
2022-10-13T17:47:04.995Z,14.33
2022-10-13T17:52:07.720Z,13.80
2022-10-13T17:57:10.406Z,15.47
2022-10-13T18:02:13.152Z,14.20
2022-10-13T18:07:15.927Z,15.33
2022-10-13T18:12:18.869Z,14.57
2022-10-13T18:17:21.896Z,13.60
2022-10-13T18:22:24.905Z,14.20
2022-10-13T18:27:28.322Z,13.80
2022-10-13T18:32:31.046Z,13.20
2022-10-13T18:37:33.757Z,14.03
2022-10-13T18:42:36.484Z,13.90
2022-10-13T18:47:39.177Z,13.77
2022-10-13T18:52:42.383Z,13.13
2022-10-13T18:57:45.083Z,13.53
2022-10-13T19:02:47.987Z,13.37
2022-10-13T19:07:50.791Z,13.07
2022-10-13T19:12:53.525Z,13.13
2022-10-13T19:17:57.237Z,13.27
2022-10-13T19:23:00.022Z,13.20
2022-10-13T19:28:02.826Z,15.17
2022-10-13T19:33:09.444Z,14.57
2022-10-13T19:38:21.424Z,16.00
2022-10-13T19:43:24.211Z,15.80
2022-10-13T19:48:27.249Z,16.03
2022-10-13T19:53:29.996Z,15.67
2022-10-13T19:58:32.899Z,16.10
2022-10-13T20:03:35.691Z,15.53
2022-10-13T20:08:38.719Z,14.30
2022-10-13T20:13:43.322Z,15.23
2022-10-13T20:18:50.393Z,15.70
2022-10-13T20:23:53.444Z,16.77
2022-10-13T20:28:58.251Z,15.97
2022-10-13T20:34:01.175Z,17.20
2022-10-13T20:39:06.710Z,16.93
2022-10-13T20:44:10.640Z,16.33
2022-10-13T20:49:13.741Z,16.33
2022-10-13T20:54:16.969Z,16.33
2022-10-13T20:59:19.688Z,16.43
2022-10-13T21:04:22.366Z,15.30
2022-10-13T21:09:25.056Z,15.33
2022-10-13T21:14:27.908Z,15.43
2022-10-13T21:19:30.732Z,15.90
2022-10-13T21:24:33.503Z,16.00
2022-10-13T21:29:38.763Z,16.17
2022-10-13T21:34:41.498Z,16.30
2022-10-13T21:39:44.235Z,15.77
2022-10-13T21:44:46.916Z,16.17
2022-10-13T21:49:49.744Z,15.73
2022-10-13T21:54:52.969Z,15.30
2022-10-13T21:59:55.656Z,14.57
2022-10-13T22:04:58.354Z,14.93
2022-10-13T22:10:01.189Z,14.87
2022-10-13T22:15:04.443Z,14.67
2022-10-13T22:20:07.426Z,15.40
2022-10-13T22:25:12.884Z,16.90
2022-10-13T22:30:15.668Z,15.27
2022-10-13T22:35:18.376Z,15.73
2022-10-13T22:40:21.085Z,16.13
2022-10-13T22:45:23.831Z,15.73
2022-10-13T22:50:26.612Z,14.37
2022-10-13T22:55:29.331Z,16.10
2022-10-13T23:00:32.114Z,16.80
2022-10-13T23:05:34.902Z,16.60
2022-10-13T23:10:38.539Z,16.47
2022-10-13T23:15:41.307Z,16.57
2022-10-13T23:20:44.050Z,15.87
2022-10-13T23:25:49.523Z,15.33
2022-10-13T23:30:52.317Z,15.37
2022-10-13T23:35:56.926Z,14.60
2022-10-13T23:41:08.248Z,13.83
2022-10-13T23:46:12.374Z,14.97
2022-10-13T23:51:17.928Z,14.43
2022-10-13T23:56:21.195Z,15.47
